sensor_id;sensor_type;location;lat;lon;timestamp;P1;durP1;ratioP1;P2;durP2;ratioP2
4986;SDS011;12674;51.500;7.552;2024-03-22T00:00:20;33.30;;;23.30;;
4986;SDS011;12674;51.500;7.552;2024-03-22T00:02:22;37.23;;;23.30;;
4986;SDS011;12674;51.500;7.552;2024-03-22T00:04:23;39.10;;;24.30;;
4986;SDS011;12674;51.500;7.552;2024-03-22T00:06:26;40.47;;;23.30;;
4986;SDS011;12674;51.500;7.552;2024-03-22T00:08:27;36.77;;;22.43;;
4986;SDS011;12674;51.500;7.552;2024-03-22T00:10:30;37.00;;;23.93;;
4986;SDS011;12674;51.500;7.552;2024-03-22T00:12:30;38.20;;;23.00;;
4986;SDS011;12674;51.500;7.552;2024-03-22T00:14:32;39.53;;;23.30;;
4986;SDS011;12674;51.500;7.552;2024-03-22T00:16:33;50.20;;;24.80;;
4986;SDS011;12674;51.500;7.552;2024-03-22T00:18:35;36.60;;;22.57;;
4986;SDS011;12674;51.500;7.552;2024-03-22T00:20:37;42.50;;;24.63;;
4986;SDS011;12674;51.500;7.552;2024-03-22T00:22:39;40.63;;;22.43;;
4986;SDS011;12674;51.500;7.552;2024-03-22T00:24:40;41.10;;;23.80;;
4986;SDS011;12674;51.500;7.552;2024-03-22T00:26:42;35.50;;;22.73;;
4986;SDS011;12674;51.500;7.552;2024-03-22T00:28:49;34.00;;;22.10;;
4986;SDS011;12674;51.500;7.552;2024-03-22T00:30:51;37.83;;;22.90;;
4986;SDS011;12674;51.500;7.552;2024-03-22T00:32:52;35.10;;;22.23;;
4986;SDS011;12674;51.500;7.552;2024-03-22T00:34:54;39.53;;;22.83;;
4986;SDS011;12674;51.500;7.552;2024-03-22T00:36:55;37.47;;;21.47;;
4986;SDS011;12674;51.500;7.552;2024-03-22T00:38:58;41.40;;;22.93;;
4986;SDS011;12674;51.500;7.552;2024-03-22T00:40:59;36.37;;;22.60;;
4986;SDS011;12674;51.500;7.552;2024-03-22T00:43:01;33.80;;;21.20;;
4986;SDS011;12674;51.500;7.552;2024-03-22T00:45:02;39.77;;;22.40;;
4986;SDS011;12674;51.500;7.552;2024-03-22T00:47:04;36.90;;;22.10;;
4986;SDS011;12674;51.500;7.552;2024-03-22T00:49:06;33.63;;;21.93;;
4986;SDS011;12674;51.500;7.552;2024-03-22T00:51:08;45.10;;;22.57;;
4986;SDS011;12674;51.500;7.552;2024-03-22T00:53:09;41.77;;;21.73;;
4986;SDS011;12674;51.500;7.552;2024-03-22T00:55:12;37.73;;;21.87;;
4986;SDS011;12674;51.500;7.552;2024-03-22T00:57:13;37.57;;;23.63;;
4986;SDS011;12674;51.500;7.552;2024-03-22T00:59:15;39.23;;;21.73;;
4986;SDS011;12674;51.500;7.552;2024-03-22T01:01:17;36.70;;;21.70;;
4986;SDS011;12674;51.500;7.552;2024-03-22T01:03:19;31.93;;;21.97;;
4986;SDS011;12674;51.500;7.552;2024-03-22T01:05:20;32.30;;;20.57;;
4986;SDS011;12674;51.500;7.552;2024-03-22T01:07:22;36.87;;;21.97;;
4986;SDS011;12674;51.500;7.552;2024-03-22T01:09:23;36.20;;;22.10;;
4986;SDS011;12674;51.500;7.552;2024-03-22T01:11:26;33.20;;;20.90;;
4986;SDS011;12674;51.500;7.552;2024-03-22T01:13:27;32.20;;;21.03;;
4986;SDS011;12674;51.500;7.552;2024-03-22T01:15:29;32.63;;;19.33;;
4986;SDS011;12674;51.500;7.552;2024-03-22T01:17:30;37.13;;;21.17;;
4986;SDS011;12674;51.500;7.552;2024-03-22T01:19:32;32.03;;;19.43;;
4986;SDS011;12674;51.500;7.552;2024-03-22T01:21:33;35.20;;;19.60;;
4986;SDS011;12674;51.500;7.552;2024-03-22T01:23:36;46.33;;;20.20;;
4986;SDS011;12674;51.500;7.552;2024-03-22T01:25:37;37.67;;;21.03;;
4986;SDS011;12674;51.500;7.552;2024-03-22T01:27:40;35.97;;;20.37;;
4986;SDS011;12674;51.500;7.552;2024-03-22T01:29:41;31.60;;;19.57;;
4986;SDS011;12674;51.500;7.552;2024-03-22T01:31:43;36.30;;;20.83;;
4986;SDS011;12674;51.500;7.552;2024-03-22T01:33:44;28.63;;;18.80;;
4986;SDS011;12674;51.500;7.552;2024-03-22T01:35:46;33.73;;;19.60;;
4986;SDS011;12674;51.500;7.552;2024-03-22T01:37:47;32.33;;;19.23;;
4986;SDS011;12674;51.500;7.552;2024-03-22T01:39:49;33.47;;;20.03;;
4986;SDS011;12674;51.500;7.552;2024-03-22T01:41:50;35.37;;;20.70;;
4986;SDS011;12674;51.500;7.552;2024-03-22T01:43:54;31.67;;;19.90;;
4986;SDS011;12674;51.500;7.552;2024-03-22T01:45:55;36.23;;;20.60;;
4986;SDS011;12674;51.500;7.552;2024-03-22T01:47:56;34.20;;;20.20;;
4986;SDS011;12674;51.500;7.552;2024-03-22T01:49:58;32.83;;;20.00;;
4986;SDS011;12674;51.500;7.552;2024-03-22T01:52:00;39.67;;;20.87;;
4986;SDS011;12674;51.500;7.552;2024-03-22T01:54:01;31.47;;;20.10;;
4986;SDS011;12674;51.500;7.552;2024-03-22T01:56:04;37.60;;;21.57;;
4986;SDS011;12674;51.500;7.552;2024-03-22T01:58:06;32.57;;;19.90;;
4986;SDS011;12674;51.500;7.552;2024-03-22T02:00:10;35.60;;;20.70;;
4986;SDS011;12674;51.500;7.552;2024-03-22T02:02:14;36.40;;;20.90;;
4986;SDS011;12674;51.500;7.552;2024-03-22T02:04:17;32.97;;;20.10;;
4986;SDS011;12674;51.500;7.552;2024-03-22T02:06:18;35.17;;;21.33;;
4986;SDS011;12674;51.500;7.552;2024-03-22T02:08:20;41.40;;;20.40;;
4986;SDS011;12674;51.500;7.552;2024-03-22T02:10:21;34.27;;;20.70;;
4986;SDS011;12674;51.500;7.552;2024-03-22T02:12:23;38.83;;;22.00;;
4986;SDS011;12674;51.500;7.552;2024-03-22T02:14:24;34.47;;;19.63;;
4986;SDS011;12674;51.500;7.552;2024-03-22T02:16:28;33.73;;;19.67;;
4986;SDS011;12674;51.500;7.552;2024-03-22T02:18:29;34.90;;;20.67;;
4986;SDS011;12674;51.500;7.552;2024-03-22T02:20:31;34.50;;;19.20;;
4986;SDS011;12674;51.500;7.552;2024-03-22T02:22:32;34.30;;;19.63;;
4986;SDS011;12674;51.500;7.552;2024-03-22T02:24:35;30.27;;;19.10;;
4986;SDS011;12674;51.500;7.552;2024-03-22T02:26:36;35.00;;;19.43;;
4986;SDS011;12674;51.500;7.552;2024-03-22T02:28:38;29.57;;;19.10;;
4986;SDS011;12674;51.500;7.552;2024-03-22T02:30:39;35.80;;;19.30;;
4986;SDS011;12674;51.500;7.552;2024-03-22T02:32:41;35.20;;;20.50;;
4986;SDS011;12674;51.500;7.552;2024-03-22T02:34:42;37.43;;;21.07;;
4986;SDS011;12674;51.500;7.552;2024-03-22T02:36:44;39.43;;;19.83;;
4986;SDS011;12674;51.500;7.552;2024-03-22T02:38:45;34.00;;;19.50;;
4986;SDS011;12674;51.500;7.552;2024-03-22T02:40:49;34.23;;;20.97;;
4986;SDS011;12674;51.500;7.552;2024-03-22T02:42:51;32.73;;;18.60;;
4986;SDS011;12674;51.500;7.552;2024-03-22T02:44:53;30.33;;;19.00;;
4986;SDS011;12674;51.500;7.552;2024-03-22T02:46:54;39.43;;;20.70;;
4986;SDS011;12674;51.500;7.552;2024-03-22T02:48:56;32.93;;;19.80;;
4986;SDS011;12674;51.500;7.552;2024-03-22T02:50:57;33.20;;;19.80;;
4986;SDS011;12674;51.500;7.552;2024-03-22T02:52:59;35.10;;;19.43;;
4986;SDS011;12674;51.500;7.552;2024-03-22T02:55:00;36.10;;;19.33;;
4986;SDS011;12674;51.500;7.552;2024-03-22T02:57:03;37.30;;;20.43;;
4986;SDS011;12674;51.500;7.552;2024-03-22T02:59:04;33.57;;;19.27;;
4986;SDS011;12674;51.500;7.552;2024-03-22T03:01:06;34.63;;;19.53;;
4986;SDS011;12674;51.500;7.552;2024-03-22T03:03:07;30.53;;;19.50;;
4986;SDS011;12674;51.500;7.552;2024-03-22T03:05:09;31.73;;;18.27;;
4986;SDS011;12674;51.500;7.552;2024-03-22T03:07:10;38.50;;;19.33;;
4986;SDS011;12674;51.500;7.552;2024-03-22T03:09:12;36.00;;;20.73;;
4986;SDS011;12674;51.500;7.552;2024-03-22T03:11:14;36.03;;;18.20;;
4986;SDS011;12674;51.500;7.552;2024-03-22T03:13:17;28.77;;;18.20;;
4986;SDS011;12674;51.500;7.552;2024-03-22T03:15:18;33.03;;;18.23;;
4986;SDS011;12674;51.500;7.552;2024-03-22T03:17:20;29.53;;;17.60;;
4986;SDS011;12674;51.500;7.552;2024-03-22T03:19:21;32.60;;;18.50;;
4986;SDS011;12674;51.500;7.552;2024-03-22T03:21:23;29.93;;;17.87;;
4986;SDS011;12674;51.500;7.552;2024-03-22T03:23:24;31.57;;;18.37;;
4986;SDS011;12674;51.500;7.552;2024-03-22T03:25:26;31.27;;;16.97;;
4986;SDS011;12674;51.500;7.552;2024-03-22T03:27:27;30.37;;;17.70;;
4986;SDS011;12674;51.500;7.552;2024-03-22T03:29:30;33.80;;;18.40;;
4986;SDS011;12674;51.500;7.552;2024-03-22T03:31:31;30.97;;;18.33;;
4986;SDS011;12674;51.500;7.552;2024-03-22T03:33:33;37.27;;;20.20;;
4986;SDS011;12674;51.500;7.552;2024-03-22T03:35:34;40.97;;;19.07;;
4986;SDS011;12674;51.500;7.552;2024-03-22T03:37:36;33.90;;;19.37;;
4986;SDS011;12674;51.500;7.552;2024-03-22T03:39:37;33.77;;;19.37;;
4986;SDS011;12674;51.500;7.552;2024-03-22T03:41:39;36.03;;;18.93;;
4986;SDS011;12674;51.500;7.552;2024-03-22T03:43:40;34.80;;;18.13;;
4986;SDS011;12674;51.500;7.552;2024-03-22T03:45:44;34.07;;;18.33;;
4986;SDS011;12674;51.500;7.552;2024-03-22T03:47:45;31.70;;;19.63;;
4986;SDS011;12674;51.500;7.552;2024-03-22T03:49:47;32.93;;;18.83;;
4986;SDS011;12674;51.500;7.552;2024-03-22T03:51:48;30.70;;;19.30;;
4986;SDS011;12674;51.500;7.552;2024-03-22T03:53:49;27.03;;;17.37;;
4986;SDS011;12674;51.500;7.552;2024-03-22T03:55:51;28.93;;;17.60;;
4986;SDS011;12674;51.500;7.552;2024-03-22T03:57:52;31.30;;;18.33;;
4986;SDS011;12674;51.500;7.552;2024-03-22T03:59:53;30.53;;;18.13;;
4986;SDS011;12674;51.500;7.552;2024-03-22T04:01:56;29.87;;;18.53;;
4986;SDS011;12674;51.500;7.552;2024-03-22T04:03:58;35.90;;;17.87;;
4986;SDS011;12674;51.500;7.552;2024-03-22T04:05:59;33.10;;;18.73;;
4986;SDS011;12674;51.500;7.552;2024-03-22T04:08:01;28.57;;;17.97;;
4986;SDS011;12674;51.500;7.552;2024-03-22T04:10:02;28.17;;;16.60;;
4986;SDS011;12674;51.500;7.552;2024-03-22T04:12:05;32.90;;;17.67;;
4986;SDS011;12674;51.500;7.552;2024-03-22T04:14:06;32.93;;;19.80;;
4986;SDS011;12674;51.500;7.552;2024-03-22T04:16:08;33.33;;;20.10;;
4986;SDS011;12674;51.500;7.552;2024-03-22T04:18:10;30.70;;;18.03;;
4986;SDS011;12674;51.500;7.552;2024-03-22T04:20:12;23.23;;;16.97;;
4986;SDS011;12674;51.500;7.552;2024-03-22T04:22:13;28.57;;;18.60;;
4986;SDS011;12674;51.500;7.552;2024-03-22T04:24:15;35.67;;;18.50;;
4986;SDS011;12674;51.500;7.552;2024-03-22T04:26:16;29.80;;;18.43;;
4986;SDS011;12674;51.500;7.552;2024-03-22T04:28:18;34.30;;;19.10;;
4986;SDS011;12674;51.500;7.552;2024-03-22T04:30:19;25.80;;;18.33;;
4986;SDS011;12674;51.500;7.552;2024-03-22T04:32:21;27.10;;;17.00;;
4986;SDS011;12674;51.500;7.552;2024-03-22T04:34:23;29.30;;;18.00;;
4986;SDS011;12674;51.500;7.552;2024-03-22T04:36:26;24.23;;;16.30;;
4986;SDS011;12674;51.500;7.552;2024-03-22T04:38:27;30.40;;;17.87;;
4986;SDS011;12674;51.500;7.552;2024-03-22T04:40:29;24.83;;;16.57;;
4986;SDS011;12674;51.500;7.552;2024-03-22T04:42:30;27.40;;;17.07;;
4986;SDS011;12674;51.500;7.552;2024-03-22T04:44:32;31.33;;;17.80;;
4986;SDS011;12674;51.500;7.552;2024-03-22T04:46:33;36.87;;;16.83;;
4986;SDS011;12674;51.500;7.552;2024-03-22T04:48:35;28.13;;;15.93;;
4986;SDS011;12674;51.500;7.552;2024-03-22T04:50:38;32.97;;;16.90;;
4986;SDS011;12674;51.500;7.552;2024-03-22T04:52:40;27.50;;;16.70;;
4986;SDS011;12674;51.500;7.552;2024-03-22T04:54:41;25.47;;;16.67;;
4986;SDS011;12674;51.500;7.552;2024-03-22T04:56:43;31.30;;;17.10;;
4986;SDS011;12674;51.500;7.552;2024-03-22T04:58:43;30.57;;;17.20;;
4986;SDS011;12674;51.500;7.552;2024-03-22T05:00:45;30.10;;;15.87;;
4986;SDS011;12674;51.500;7.552;2024-03-22T05:02:47;29.60;;;16.27;;
4986;SDS011;12674;51.500;7.552;2024-03-22T05:04:48;28.03;;;16.70;;
4986;SDS011;12674;51.500;7.552;2024-03-22T05:06:52;31.47;;;16.53;;
4986;SDS011;12674;51.500;7.552;2024-03-22T05:08:53;29.87;;;16.30;;
4986;SDS011;12674;51.500;7.552;2024-03-22T05:10:55;23.73;;;15.97;;
4986;SDS011;12674;51.500;7.552;2024-03-22T05:12:56;26.57;;;15.93;;
4986;SDS011;12674;51.500;7.552;2024-03-22T05:14:58;24.70;;;15.47;;
4986;SDS011;12674;51.500;7.552;2024-03-22T05:16:59;23.53;;;15.90;;
4986;SDS011;12674;51.500;7.552;2024-03-22T05:19:00;23.40;;;14.43;;
4986;SDS011;12674;51.500;7.552;2024-03-22T05:21:01;23.70;;;15.97;;
4986;SDS011;12674;51.500;7.552;2024-03-22T05:23:05;24.30;;;16.17;;
4986;SDS011;12674;51.500;7.552;2024-03-22T05:25:06;23.53;;;14.57;;
4986;SDS011;12674;51.500;7.552;2024-03-22T05:27:09;26.60;;;14.63;;
4986;SDS011;12674;51.500;7.552;2024-03-22T05:29:10;23.30;;;13.80;;
4986;SDS011;12674;51.500;7.552;2024-03-22T05:31:12;21.73;;;14.13;;
4986;SDS011;12674;51.500;7.552;2024-03-22T05:33:13;24.37;;;14.97;;
4986;SDS011;12674;51.500;7.552;2024-03-22T05:35:15;25.53;;;15.60;;
4986;SDS011;12674;51.500;7.552;2024-03-22T05:37:16;26.40;;;14.00;;
4986;SDS011;12674;51.500;7.552;2024-03-22T05:39:19;22.10;;;14.17;;
4986;SDS011;12674;51.500;7.552;2024-03-22T05:41:20;24.80;;;13.77;;
4986;SDS011;12674;51.500;7.552;2024-03-22T05:43:22;28.87;;;14.13;;
4986;SDS011;12674;51.500;7.552;2024-03-22T05:45:23;19.10;;;13.40;;
4986;SDS011;12674;51.500;7.552;2024-03-22T05:47:25;20.40;;;13.80;;
4986;SDS011;12674;51.500;7.552;2024-03-22T05:49:26;24.03;;;13.50;;
4986;SDS011;12674;51.500;7.552;2024-03-22T05:51:28;23.20;;;12.23;;
4986;SDS011;12674;51.500;7.552;2024-03-22T05:53:30;21.73;;;12.77;;
4986;SDS011;12674;51.500;7.552;2024-03-22T05:55:33;21.30;;;13.20;;
4986;SDS011;12674;51.500;7.552;2024-03-22T05:57:34;22.30;;;13.47;;
4986;SDS011;12674;51.500;7.552;2024-03-22T05:59:36;19.03;;;12.40;;
4986;SDS011;12674;51.500;7.552;2024-03-22T06:01:37;21.27;;;12.70;;
4986;SDS011;12674;51.500;7.552;2024-03-22T06:03:39;19.27;;;12.80;;
4986;SDS011;12674;51.500;7.552;2024-03-22T06:05:40;21.03;;;12.37;;
4986;SDS011;12674;51.500;7.552;2024-03-22T06:07:42;19.47;;;12.90;;
4986;SDS011;12674;51.500;7.552;2024-03-22T06:09:44;21.13;;;12.50;;
4986;SDS011;12674;51.500;7.552;2024-03-22T06:11:50;21.47;;;12.67;;
4986;SDS011;12674;51.500;7.552;2024-03-22T06:13:51;18.90;;;10.97;;
4986;SDS011;12674;51.500;7.552;2024-03-22T06:15:53;17.03;;;11.50;;
4986;SDS011;12674;51.500;7.552;2024-03-22T06:17:54;19.43;;;11.57;;
4986;SDS011;12674;51.500;7.552;2024-03-22T06:19:56;19.47;;;11.23;;
4986;SDS011;12674;51.500;7.552;2024-03-22T06:21:57;20.03;;;11.17;;
4986;SDS011;12674;51.500;7.552;2024-03-22T06:23:59;19.13;;;10.90;;
4986;SDS011;12674;51.500;7.552;2024-03-22T06:26:00;22.60;;;11.20;;
4986;SDS011;12674;51.500;7.552;2024-03-22T06:28:04;19.67;;;12.20;;
4986;SDS011;12674;51.500;7.552;2024-03-22T06:30:05;16.43;;;9.70;;
4986;SDS011;12674;51.500;7.552;2024-03-22T06:32:08;25.80;;;10.57;;
4986;SDS011;12674;51.500;7.552;2024-03-22T06:34:09;17.30;;;9.53;;
4986;SDS011;12674;51.500;7.552;2024-03-22T06:36:11;16.30;;;10.17;;
4986;SDS011;12674;51.500;7.552;2024-03-22T06:38:12;15.47;;;9.77;;
4986;SDS011;12674;51.500;7.552;2024-03-22T06:40:14;13.03;;;8.87;;
4986;SDS011;12674;51.500;7.552;2024-03-22T06:42:17;16.53;;;9.80;;
4986;SDS011;12674;51.500;7.552;2024-03-22T06:44:20;18.70;;;9.10;;
4986;SDS011;12674;51.500;7.552;2024-03-22T06:46:21;14.60;;;9.80;;
4986;SDS011;12674;51.500;7.552;2024-03-22T06:48:23;18.00;;;10.20;;
4986;SDS011;12674;51.500;7.552;2024-03-22T06:50:24;15.67;;;8.80;;
4986;SDS011;12674;51.500;7.552;2024-03-22T06:52:26;15.67;;;9.37;;
4986;SDS011;12674;51.500;7.552;2024-03-22T06:54:27;16.47;;;8.60;;
4986;SDS011;12674;51.500;7.552;2024-03-22T06:56:29;13.00;;;8.40;;
4986;SDS011;12674;51.500;7.552;2024-03-22T06:58:30;21.80;;;8.87;;
4986;SDS011;12674;51.500;7.552;2024-03-22T07:00:33;13.40;;;8.10;;
4986;SDS011;12674;51.500;7.552;2024-03-22T07:02:35;13.33;;;8.27;;
4986;SDS011;12674;51.500;7.552;2024-03-22T07:04:37;12.30;;;8.80;;
4986;SDS011;12674;51.500;7.552;2024-03-22T07:06:37;16.30;;;8.80;;
4986;SDS011;12674;51.500;7.552;2024-03-22T07:08:39;18.63;;;8.55;;
4986;SDS011;12674;51.500;7.552;2024-03-22T07:10:40;10.02;;;7.90;;
4986;SDS011;12674;51.500;7.552;2024-03-22T07:12:42;18.13;;;9.07;;
4986;SDS011;12674;51.500;7.552;2024-03-22T07:14:43;13.32;;;7.68;;
4986;SDS011;12674;51.500;7.552;2024-03-22T07:16:47;13.80;;;8.25;;
4986;SDS011;12674;51.500;7.552;2024-03-22T07:18:48;14.15;;;8.98;;
4986;SDS011;12674;51.500;7.552;2024-03-22T07:20:50;14.23;;;7.90;;
4986;SDS011;12674;51.500;7.552;2024-03-22T07:22:51;10.63;;;7.65;;
4986;SDS011;12674;51.500;7.552;2024-03-22T07:24:53;11.02;;;8.13;;
4986;SDS011;12674;51.500;7.552;2024-03-22T07:26:55;14.25;;;7.72;;
4986;SDS011;12674;51.500;7.552;2024-03-22T07:28:57;13.73;;;8.63;;
4986;SDS011;12674;51.500;7.552;2024-03-22T07:30:58;14.13;;;8.27;;
4986;SDS011;12674;51.500;7.552;2024-03-22T07:33:03;10.88;;;8.43;;
4986;SDS011;12674;51.500;7.552;2024-03-22T07:35:05;12.48;;;8.25;;
4986;SDS011;12674;51.500;7.552;2024-03-22T07:37:07;20.05;;;9.15;;
4986;SDS011;12674;51.500;7.552;2024-03-22T07:39:08;10.57;;;7.85;;
4986;SDS011;12674;51.500;7.552;2024-03-22T07:41:10;12.85;;;9.27;;
4986;SDS011;12674;51.500;7.552;2024-03-22T07:43:12;12.52;;;8.40;;
4986;SDS011;12674;51.500;7.552;2024-03-22T07:45:15;27.55;;;9.00;;
4986;SDS011;12674;51.500;7.552;2024-03-22T07:47:17;15.70;;;9.18;;
4986;SDS011;12674;51.500;7.552;2024-03-22T07:49:19;16.85;;;8.10;;
4986;SDS011;12674;51.500;7.552;2024-03-22T07:51:21;14.50;;;8.38;;
4986;SDS011;12674;51.500;7.552;2024-03-22T07:53:23;13.95;;;8.50;;
4986;SDS011;12674;51.500;7.552;2024-03-22T07:55:24;21.70;;;9.68;;
4986;SDS011;12674;51.500;7.552;2024-03-22T07:57:25;14.70;;;8.98;;
4986;SDS011;12674;51.500;7.552;2024-03-22T07:59:27;13.02;;;8.70;;
4986;SDS011;12674;51.500;7.552;2024-03-22T08:01:28;14.82;;;7.88;;
4986;SDS011;12674;51.500;7.552;2024-03-22T08:03:30;14.48;;;9.18;;
4986;SDS011;12674;51.500;7.552;2024-03-22T08:05:33;14.45;;;10.07;;
4986;SDS011;12674;51.500;7.552;2024-03-22T08:07:35;20.63;;;10.88;;
4986;SDS011;12674;51.500;7.552;2024-03-22T08:09:36;14.07;;;9.13;;
4986;SDS011;12674;51.500;7.552;2024-03-22T08:11:38;16.95;;;9.82;;
4986;SDS011;12674;51.500;7.552;2024-03-22T08:13:39;15.23;;;9.30;;
4986;SDS011;12674;51.500;7.552;2024-03-22T08:15:41;19.17;;;10.02;;
4986;SDS011;12674;51.500;7.552;2024-03-22T08:17:44;15.65;;;10.07;;
4986;SDS011;12674;51.500;7.552;2024-03-22T08:19:46;15.52;;;10.20;;
4986;SDS011;12674;51.500;7.552;2024-03-22T08:21:49;16.48;;;10.10;;
4986;SDS011;12674;51.500;7.552;2024-03-22T08:23:51;23.55;;;10.80;;
4986;SDS011;12674;51.500;7.552;2024-03-22T08:25:52;16.00;;;10.52;;
4986;SDS011;12674;51.500;7.552;2024-03-22T08:27:54;23.23;;;11.48;;
4986;SDS011;12674;51.500;7.552;2024-03-22T08:29:55;18.98;;;11.48;;
4986;SDS011;12674;51.500;7.552;2024-03-22T08:31:57;21.98;;;11.85;;
4986;SDS011;12674;51.500;7.552;2024-03-22T08:33:59;17.48;;;10.93;;
4986;SDS011;12674;51.500;7.552;2024-03-22T08:36:02;18.02;;;12.27;;
4986;SDS011;12674;51.500;7.552;2024-03-22T08:38:05;19.35;;;11.90;;
4986;SDS011;12674;51.500;7.552;2024-03-22T08:40:10;19.73;;;11.00;;
4986;SDS011;12674;51.500;7.552;2024-03-22T08:42:13;23.58;;;11.55;;
4986;SDS011;12674;51.500;7.552;2024-03-22T08:44:14;16.75;;;11.60;;
4986;SDS011;12674;51.500;7.552;2024-03-22T08:46:15;19.40;;;12.15;;
4986;SDS011;12674;51.500;7.552;2024-03-22T08:48:17;17.55;;;10.35;;
4986;SDS011;12674;51.500;7.552;2024-03-22T08:50:18;20.00;;;11.82;;
4986;SDS011;12674;51.500;7.552;2024-03-22T08:52:20;29.55;;;12.15;;
4986;SDS011;12674;51.500;7.552;2024-03-22T08:54:24;16.30;;;10.45;;
4986;SDS011;12674;51.500;7.552;2024-03-22T08:56:26;17.52;;;11.90;;
4986;SDS011;12674;51.500;7.552;2024-03-22T08:58:27;20.23;;;12.63;;
4986;SDS011;12674;51.500;7.552;2024-03-22T09:00:29;17.98;;;12.13;;
4986;SDS011;12674;51.500;7.552;2024-03-22T09:02:30;16.10;;;11.88;;
4986;SDS011;12674;51.500;7.552;2024-03-22T09:04:32;26.83;;;11.75;;
4986;SDS011;12674;51.500;7.552;2024-03-22T09:06:33;21.45;;;13.68;;
4986;SDS011;12674;51.500;7.552;2024-03-22T09:08:35;20.48;;;12.80;;
4986;SDS011;12674;51.500;7.552;2024-03-22T09:10:37;19.08;;;12.23;;
4986;SDS011;12674;51.500;7.552;2024-03-22T09:12:39;25.83;;;13.00;;
4986;SDS011;12674;51.500;7.552;2024-03-22T09:14:41;18.42;;;12.88;;
4986;SDS011;12674;51.500;7.552;2024-03-22T09:16:46;21.60;;;13.18;;
4986;SDS011;12674;51.500;7.552;2024-03-22T09:18:47;22.05;;;13.27;;
4986;SDS011;12674;51.500;7.552;2024-03-22T09:20:49;20.95;;;12.13;;
4986;SDS011;12674;51.500;7.552;2024-03-22T09:22:50;26.38;;;12.80;;
4986;SDS011;12674;51.500;7.552;2024-03-22T09:24:52;21.15;;;12.13;;
4986;SDS011;12674;51.500;7.552;2024-03-22T09:26:54;18.45;;;12.57;;
4986;SDS011;12674;51.500;7.552;2024-03-22T09:28:56;17.90;;;12.43;;
4986;SDS011;12674;51.500;7.552;2024-03-22T09:30:57;18.42;;;11.93;;
4986;SDS011;12674;51.500;7.552;2024-03-22T09:32:59;22.23;;;12.02;;
4986;SDS011;12674;51.500;7.552;2024-03-22T09:35:00;17.20;;;11.85;;
4986;SDS011;12674;51.500;7.552;2024-03-22T09:37:01;15.48;;;11.23;;
4986;SDS011;12674;51.500;7.552;2024-03-22T09:39:03;22.27;;;11.88;;
4986;SDS011;12674;51.500;7.552;2024-03-22T09:41:04;16.52;;;11.25;;
4986;SDS011;12674;51.500;7.552;2024-03-22T09:43:08;18.27;;;11.13;;
4986;SDS011;12674;51.500;7.552;2024-03-22T09:45:10;19.45;;;11.40;;
4986;SDS011;12674;51.500;7.552;2024-03-22T09:47:13;23.67;;;11.68;;
4986;SDS011;12674;51.500;7.552;2024-03-22T09:49:15;17.90;;;11.90;;
4986;SDS011;12674;51.500;7.552;2024-03-22T09:51:17;19.70;;;12.25;;
4986;SDS011;12674;51.500;7.552;2024-03-22T09:53:19;17.45;;;11.40;;
4986;SDS011;12674;51.500;7.552;2024-03-22T09:55:22;21.13;;;11.32;;
4986;SDS011;12674;51.500;7.552;2024-03-22T09:57:23;21.92;;;12.27;;
4986;SDS011;12674;51.500;7.552;2024-03-22T09:59:28;21.23;;;11.77;;
4986;SDS011;12674;51.500;7.552;2024-03-22T10:01:28;16.50;;;10.48;;
4986;SDS011;12674;51.500;7.552;2024-03-22T10:03:32;18.33;;;10.95;;
4986;SDS011;12674;51.500;7.552;2024-03-22T10:05:33;14.15;;;10.18;;
4986;SDS011;12674;51.500;7.552;2024-03-22T10:07:35;16.67;;;10.07;;
4986;SDS011;12674;51.500;7.552;2024-03-22T10:09:37;18.08;;;10.45;;
4986;SDS011;12674;51.500;7.552;2024-03-22T10:11:39;18.67;;;9.50;;
4986;SDS011;12674;51.500;7.552;2024-03-22T10:13:40;18.45;;;11.70;;
4986;SDS011;12674;51.500;7.552;2024-03-22T10:15:44;18.98;;;10.73;;
4986;SDS011;12674;51.500;7.552;2024-03-22T10:17:45;18.52;;;11.30;;
4986;SDS011;12674;51.500;7.552;2024-03-22T10:19:48;15.20;;;10.57;;
4986;SDS011;12674;51.500;7.552;2024-03-22T10:21:59;19.95;;;10.80;;
4986;SDS011;12674;51.500;7.552;2024-03-22T10:24:01;15.95;;;11.10;;
4986;SDS011;12674;51.500;7.552;2024-03-22T10:26:02;17.30;;;10.25;;
4986;SDS011;12674;51.500;7.552;2024-03-22T10:28:04;15.38;;;9.77;;
4986;SDS011;12674;51.500;7.552;2024-03-22T10:30:06;19.40;;;11.50;;
4986;SDS011;12674;51.500;7.552;2024-03-22T10:32:11;16.33;;;10.18;;
4986;SDS011;12674;51.500;7.552;2024-03-22T10:34:13;16.15;;;10.18;;
4986;SDS011;12674;51.500;7.552;2024-03-22T10:36:15;16.98;;;10.63;;
4986;SDS011;12674;51.500;7.552;2024-03-22T10:38:16;14.32;;;9.73;;
4986;SDS011;12674;51.500;7.552;2024-03-22T10:40:20;17.33;;;10.55;;
4986;SDS011;12674;51.500;7.552;2024-03-22T10:42:21;16.88;;;9.65;;
4986;SDS011;12674;51.500;7.552;2024-03-22T10:44:24;17.95;;;10.27;;
4986;SDS011;12674;51.500;7.552;2024-03-22T10:46:27;14.23;;;9.07;;
4986;SDS011;12674;51.500;7.552;2024-03-22T10:48:32;16.80;;;9.75;;
4986;SDS011;12674;51.500;7.552;2024-03-22T10:50:34;15.93;;;10.30;;
4986;SDS011;12674;51.500;7.552;2024-03-22T10:52:38;19.88;;;11.02;;
4986;SDS011;12674;51.500;7.552;2024-03-22T10:54:40;14.75;;;10.30;;
4986;SDS011;12674;51.500;7.552;2024-03-22T10:56:42;15.52;;;9.48;;
4986;SDS011;12674;51.500;7.552;2024-03-22T10:58:44;13.48;;;10.02;;
4986;SDS011;12674;51.500;7.552;2024-03-22T11:00:46;14.13;;;9.55;;
4986;SDS011;12674;51.500;7.552;2024-03-22T11:02:47;18.85;;;9.98;;
4986;SDS011;12674;51.500;7.552;2024-03-22T11:04:54;16.00;;;9.63;;
4986;SDS011;12674;51.500;7.552;2024-03-22T11:06:57;15.07;;;10.00;;
4986;SDS011;12674;51.500;7.552;2024-03-22T11:08:59;17.52;;;10.45;;
4986;SDS011;12674;51.500;7.552;2024-03-22T11:11:08;15.48;;;9.32;;
4986;SDS011;12674;51.500;7.552;2024-03-22T11:13:11;13.68;;;9.23;;
4986;SDS011;12674;51.500;7.552;2024-03-22T11:15:12;15.40;;;8.90;;
4986;SDS011;12674;51.500;7.552;2024-03-22T11:17:14;17.90;;;10.88;;
4986;SDS011;12674;51.500;7.552;2024-03-22T11:19:15;18.27;;;9.75;;
4986;SDS011;12674;51.500;7.552;2024-03-22T11:21:19;12.90;;;9.98;;
4986;SDS011;12674;51.500;7.552;2024-03-22T11:23:20;16.05;;;10.18;;
4986;SDS011;12674;51.500;7.552;2024-03-22T11:25:22;16.90;;;9.52;;
4986;SDS011;12674;51.500;7.552;2024-03-22T11:27:23;15.98;;;9.63;;
4986;SDS011;12674;51.500;7.552;2024-03-22T11:29:26;16.55;;;8.57;;
4986;SDS011;12674;51.500;7.552;2024-03-22T11:31:27;18.75;;;9.00;;
4986;SDS011;12674;51.500;7.552;2024-03-22T11:33:29;13.27;;;9.77;;
4986;SDS011;12674;51.500;7.552;2024-03-22T11:35:31;13.73;;;8.05;;
4986;SDS011;12674;51.500;7.552;2024-03-22T11:37:34;14.20;;;9.63;;
4986;SDS011;12674;51.500;7.552;2024-03-22T11:39:35;15.00;;;8.50;;
4986;SDS011;12674;51.500;7.552;2024-03-22T11:41:37;18.38;;;8.70;;
4986;SDS011;12674;51.500;7.552;2024-03-22T11:43:38;10.27;;;7.70;;
4986;SDS011;12674;51.500;7.552;2024-03-22T11:45:39;15.88;;;8.25;;
4986;SDS011;12674;51.500;7.552;2024-03-22T11:47:41;19.02;;;9.45;;
4986;SDS011;12674;51.500;7.552;2024-03-22T11:49:42;12.93;;;8.73;;
4986;SDS011;12674;51.500;7.552;2024-03-22T11:51:45;14.30;;;8.63;;
4986;SDS011;12674;51.500;7.552;2024-03-22T11:53:50;11.88;;;8.13;;
4986;SDS011;12674;51.500;7.552;2024-03-22T11:55:53;13.70;;;9.30;;
4986;SDS011;12674;51.500;7.552;2024-03-22T11:57:56;12.15;;;9.20;;
4986;SDS011;12674;51.500;7.552;2024-03-22T11:59:59;14.02;;;9.27;;
4986;SDS011;12674;51.500;7.552;2024-03-22T12:02:00;12.32;;;8.50;;
4986;SDS011;12674;51.500;7.552;2024-03-22T12:04:02;14.15;;;8.90;;
4986;SDS011;12674;51.500;7.552;2024-03-22T12:06:03;13.50;;;7.80;;